Time;durP1;ratioP1;P1;durP2;ratioP2;P2;SDS_P1;SDS_P2;PMS_P1;PMS_P2;Temp;Humidity;BMP_temperature;BMP_pressure;BME280_temperature;BME280_humidity;BME280_pressure;Samples;Min_cycle;Max_cycle;Signal;HPM_P1;HPM_P2
2021/07/21 00:01:00;;;;;;;4.53;2.85;;;17.20;69.50;;;;;;2065182;28;20026;-83
2021/07/21 00:02:01;;;;;;;4.93;3.20;;;17.20;69.60;;;;;;2073324;28;20377;-83
2021/07/21 00:03:02;;;;;;;4.93;2.97;;;17.20;69.60;;;;;;2057268;28;20097;-83
2021/07/21 00:04:03;;;;;;;4.85;2.90;;;17.20;69.70;;;;;;2057382;28;20057;-83
2021/07/21 00:05:10;;;;;;;4.07;2.72;;;17.20;69.80;;;;;;2057366;28;20035;-84
2021/07/21 00:06:11;;;;;;;4.38;2.88;;;17.10;69.80;;;;;;2081536;28;20033;-84
2021/07/21 00:07:15;;;;;;;4.88;2.70;;;17.20;70.00;;;;;;2073270;28;20444;-83
2021/07/21 00:08:15;;;;;;;4.40;2.67;;;17.10;70.00;;;;;;2065884;28;20026;-83
2021/07/21 00:09:16;;;;;;;4.53;2.70;;;17.20;70.00;;;;;;2057440;28;20129;-83
2021/07/21 00:10:20;;;;;;;4.32;2.80;;;17.20;70.10;;;;;;2049095;28;20067;-83
2021/07/21 00:14:02;;;;;;;5.03;2.70;;;17.20;70.30;;;;;;2087056;28;20078;-83
2021/07/21 00:15:07;;;;;;;4.50;2.83;;;17.20;70.40;;;;;;2073360;28;20053;-83
2021/07/21 00:16:15;;;;;;;4.50;2.80;;;17.10;70.50;;;;;;2066237;28;20089;-82
2021/07/21 00:17:30;;;;;;;4.53;2.72;;;17.10;70.60;;;;;;2081092;28;20029;-83
2021/07/21 00:18:44;;;;;;;5.00;2.97;;;17.10;70.70;;;;;;2064370;28;20034;-83
2021/07/21 00:20:05;;;;;;;4.70;2.70;;;17.10;71.30;;;;;;2056703;28;20034;-83
2021/07/21 00:21:06;;;;;;;4.78;2.72;;;17.10;70.90;;;;;;2067203;28;20026;-83
2021/07/21 00:22:07;;;;;;;4.88;3.00;;;17.10;70.90;;;;;;2072546;28;20083;-84
2021/07/21 00:23:08;;;;;;;4.50;2.63;;;17.00;71.00;;;;;;2065220;28;20476;-84
2021/07/21 00:24:10;;;;;;;5.32;3.00;;;17.00;71.10;;;;;;2065229;28;20113;-84
2021/07/21 00:25:15;;;;;;;5.53;2.97;;;17.00;71.20;;;;;;2073014;28;20022;-84
2021/07/21 00:26:16;;;;;;;4.20;2.60;;;17.00;71.30;;;;;;2057926;28;20618;-84
2021/07/21 00:27:17;;;;;;;4.30;2.80;;;17.00;71.30;;;;;;2071098;28;20033;-84
2021/07/21 00:28:19;;;;;;;4.50;2.70;;;17.00;71.40;;;;;;2065210;28;20481;-84
2021/07/21 00:29:19;;;;;;;4.97;3.05;;;17.00;71.50;;;;;;2057231;28;20031;-84
2021/07/21 00:30:21;;;;;;;5.40;3.10;;;17.00;71.50;;;;;;2055357;28;20040;-84
2021/07/21 00:31:21;;;;;;;4.70;3.00;;;17.00;71.70;;;;;;2065269;28;20037;-84
2021/07/21 00:32:22;;;;;;;4.35;2.80;;;17.00;71.70;;;;;;2059249;28;20057;-84
2021/07/21 00:33:23;;;;;;;4.50;2.75;;;17.00;72.00;;;;;;2065802;28;20406;-84
2021/07/21 00:34:24;;;;;;;4.85;3.00;;;17.00;71.90;;;;;;2081507;28;20029;-84
2021/07/21 00:35:25;;;;;;;4.80;2.95;;;17.00;72.00;;;;;;2081081;28;20128;-84
2021/07/21 00:36:26;;;;;;;4.60;2.63;;;17.00;72.00;;;;;;2073260;28;20069;-84
2021/07/21 00:37:27;;;;;;;5.13;3.20;;;16.90;72.00;;;;;;2056999;28;20030;-84
2021/07/21 00:38:28;;;;;;;5.55;3.40;;;16.90;72.10;;;;;;2065339;28;20424;-83
2021/07/21 00:39:28;;;;;;;5.10;3.05;;;16.90;72.20;;;;;;2064829;28;20543;-84
2021/07/21 00:40:30;;;;;;;6.00;3.30;;;16.90;72.20;;;;;;2073099;28;20033;-83
2021/07/21 00:41:31;;;;;;;4.93;2.88;;;16.90;72.40;;;;;;2073229;28;20093;-84
2021/07/21 00:42:32;;;;;;;5.45;3.08;;;16.80;72.40;;;;;;2065253;28;20121;-84
2021/07/21 00:43:32;;;;;;;4.85;3.10;;;16.90;72.60;;;;;;2057032;28;20490;-83
2021/07/21 00:44:33;;;;;;;5.63;3.40;;;16.80;72.60;;;;;;2056903;28;20054;-84
2021/07/21 00:45:34;;;;;;;6.38;3.08;;;16.90;72.70;;;;;;2059817;28;20037;-83
2021/07/21 00:46:35;;;;;;;4.95;3.08;;;16.90;72.70;;;;;;2073264;28;20022;-83
2021/07/21 00:47:36;;;;;;;5.75;3.13;;;16.90;72.70;;;;;;2064993;28;20103;-83
2021/07/21 00:48:37;;;;;;;5.88;3.17;;;16.80;72.70;;;;;;2064961;28;20031;-83
2021/07/21 00:49:37;;;;;;;6.20;3.30;;;16.80;72.90;;;;;;2064848;28;20030;-83
2021/07/21 00:50:39;;;;;;;4.85;3.08;;;16.90;73.00;;;;;;2076342;28;20390;-83
2021/07/21 00:51:40;;;;;;;5.00;3.20;;;16.80;73.00;;;;;;2072308;28;20088;-82
2021/07/21 00:52:42;;;;;;;5.20;3.33;;;16.80;73.10;;;;;;2064533;28;20378;-83
2021/07/21 00:53:43;;;;;;;4.95;3.00;;;16.80;73.10;;;;;;2073106;28;20034;-83
2021/07/21 00:54:48;;;;;;;5.25;3.40;;;16.80;73.10;;;;;;2081187;28;20017;-83
2021/07/21 00:55:49;;;;;;;4.95;3.35;;;16.80;73.20;;;;;;2080393;28;20506;-83
2021/07/21 00:56:51;;;;;;;5.15;3.40;;;16.80;73.20;;;;;;2081215;28;20525;-82
2021/07/21 00:57:54;;;;;;;4.88;3.20;;;16.80;73.30;;;;;;2073413;28;20076;-82
2021/07/21 00:58:54;;;;;;;5.90;3.15;;;16.80;73.40;;;;;;2074354;28;20034;-82
2021/07/21 00:59:57;;;;;;;5.97;3.17;;;16.80;73.40;;;;;;2072726;28;20589;-82
2021/07/21 01:00:57;;;;;;;6.65;3.38;;;16.80;73.50;;;;;;2067317;28;20026;-82
2021/07/21 01:01:58;;;;;;;5.97;2.92;;;16.80;73.60;;;;;;2074218;28;20033;-83
2021/07/21 01:02:59;;;;;;;5.03;3.10;;;16.80;73.60;;;;;;2072871;28;20033;-82
2021/07/21 01:04:00;;;;;;;5.22;3.00;;;16.80;73.60;;;;;;2081958;28;20072;-82
2021/07/21 01:05:04;;;;;;;5.32;3.10;;;16.80;73.60;;;;;;2074119;28;20128;-82
2021/07/21 01:06:05;;;;;;;4.70;3.10;;;16.80;73.70;;;;;;2076053;28;20037;-83
2021/07/21 01:07:08;;;;;;;5.50;3.38;;;16.80;73.70;;;;;;2073172;28;20122;-83
2021/07/21 01:08:12;;;;;;;4.28;2.88;;;16.80;73.80;;;;;;2073503;28;20472;-83
2021/07/21 01:09:13;;;;;;;4.85;3.17;;;16.80;73.90;;;;;;2080726;28;20075;-84
2021/07/21 01:10:17;;;;;;;5.32;3.13;;;16.80;73.90;;;;;;2072536;28;20438;-83
2021/07/21 01:11:35;;;;;;;4.57;2.95;;;16.80;74.00;;;;;;2065739;28;20084;-83
2021/07/21 01:12:49;;;;;;;6.22;3.25;;;16.80;74.00;;;;;;2075377;28;20038;-83
2021/07/21 01:14:02;;;;;;;4.72;3.00;;;16.80;74.00;;;;;;2081172;28;20014;-83
2021/07/21 01:15:15;;;;;;;4.78;2.92;;;16.80;74.00;;;;;;2074667;28;20026;-83
2021/07/21 01:16:28;;;;;;;4.53;2.97;;;16.80;74.00;;;;;;2074914;28;20500;-83
2021/07/21 01:17:45;;;;;;;5.15;3.22;;;16.70;74.00;;;;;;2081323;28;20017;-83
2021/07/21 01:19:14;;;;;;;5.00;3.15;;;16.80;74.10;;;;;;2073029;28;20018;-83
2021/07/21 01:20:30;;;;;;;5.18;3.15;;;16.80;74.10;;;;;;2082507;28;20040;-83
2021/07/21 01:21:48;;;;;;;4.63;2.88;;;16.80;74.00;;;;;;2081208;28;20060;-83
2021/07/21 01:23:00;;;;;;;5.65;3.35;;;16.80;74.10;;;;;;2081275;28;20091;-83
2021/07/21 01:24:25;;;;;;;5.05;3.13;;;16.80;74.10;;;;;;2074479;28;20131;-83
2021/07/21 01:25:35;;;;;;;5.50;3.30;;;16.80;74.10;;;;;;2075069;28;20029;-83
2021/07/21 01:26:42;;;;;;;4.88;2.80;;;16.70;74.00;;;;;;2074235;28;20029;-83
2021/07/21 01:28:02;;;;;;;5.80;3.38;;;16.70;74.00;;;;;;2073855;28;20033;-83
2021/07/21 01:29:05;;;;;;;5.43;3.28;;;16.70;74.10;;;;;;2083632;28;20049;-83
2021/07/21 01:30:12;;;;;;;4.72;3.20;;;16.70;74.10;;;;;;2081011;28;20026;-83
2021/07/21 01:31:22;;;;;;;4.90;3.05;;;16.70;74.20;;;;;;2081296;28;20499;-83
2021/07/21 01:32:27;;;;;;;4.50;2.90;;;16.70;74.30;;;;;;2074565;28;20036;-83
2021/07/21 01:33:29;;;;;;;5.75;3.17;;;16.70;74.30;;;;;;2066887;28;20022;-82
2021/07/21 01:34:32;;;;;;;4.72;3.10;;;16.70;74.30;;;;;;2081197;28;20025;-83
2021/07/21 01:35:51;;;;;;;5.68;3.45;;;16.70;74.30;;;;;;2074065;28;20061;-83
2021/07/21 01:36:54;;;;;;;5.53;3.10;;;16.70;74.30;;;;;;2079692;28;20116;-82
2021/07/21 01:38:06;;;;;;;5.47;3.20;;;16.70;74.30;;;;;;2083136;28;20052;-83
2021/07/21 01:39:13;;;;;;;6.30;3.72;;;16.70;74.30;;;;;;2084894;28;20116;-83
2021/07/21 01:40:18;;;;;;;5.90;3.65;;;16.70;74.30;;;;;;2081045;28;20028;-84
2021/07/21 01:41:23;;;;;;;5.97;3.78;;;16.70;74.30;;;;;;2073507;28;20018;-83
2021/07/21 01:42:25;;;;;;;5.90;3.90;;;16.70;74.30;;;;;;2088915;28;20017;-83
2021/07/21 01:43:29;;;;;;;5.65;3.47;;;16.70;74.30;;;;;;2092565;28;20025;-83
2021/07/21 01:44:33;;;;;;;5.97;3.63;;;16.70;74.40;;;;;;2081085;28;20117;-83
2021/07/21 01:45:35;;;;;;;5.75;3.30;;;16.60;74.40;;;;;;2082677;28;20090;-83
2021/07/21 01:46:36;;;;;;;5.50;3.40;;;16.70;74.50;;;;;;2069131;28;20027;-83
2021/07/21 01:47:38;;;;;;;5.50;3.38;;;16.60;74.50;;;;;;2056777;28;20538;-83
2021/07/21 01:48:42;;;;;;;5.28;3.38;;;16.60;74.60;;;;;;2063243;28;20571;-83
2021/07/21 01:49:43;;;;;;;5.20;3.38;;;16.60;74.60;;;;;;2072512;28;20022;-83
2021/07/21 01:50:45;;;;;;;6.60;3.35;;;16.60;74.60;;;;;;2072851;28;20119;-83
2021/07/21 01:51:47;;;;;;;4.93;3.30;;;16.60;74.70;;;;;;2072161;28;20033;-83
2021/07/21 01:52:48;;;;;;;5.70;3.33;;;16.60;74.70;;;;;;2065008;28;20026;-83
2021/07/21 01:53:52;;;;;;;5.43;3.20;;;16.60;74.70;;;;;;2056777;28;20043;-83
2021/07/21 01:54:56;;;;;;;6.53;3.38;;;16.60;75.40;;;;;;2067476;28;20109;-84
2021/07/21 01:55:56;;;;;;;5.18;3.45;;;16.60;74.80;;;;;;2073154;28;20026;-83
2021/07/21 01:56:59;;;;;;;5.80;3.60;;;16.60;74.80;;;;;;2072795;28;20539;-84
2021/07/21 01:58:02;;;;;;;7.25;3.92;;;16.60;74.80;;;;;;2073100;28;20129;-83
2021/07/21 01:59:05;;;;;;;5.40;3.35;;;16.60;74.80;;;;;;2068926;28;20096;-83
2021/07/21 02:00:10;;;;;;;5.78;3.40;;;16.60;74.80;;;;;;2059518;28;20087;-83
2021/07/21 02:01:11;;;;;;;6.03;3.63;;;16.60;74.90;;;;;;2073427;28;20124;-83
2021/07/21 02:02:13;;;;;;;6.60;3.83;;;16.60;74.90;;;;;;2071062;28;20046;-82
2021/07/21 02:03:14;;;;;;;5.50;3.53;;;16.50;74.80;;;;;;2074735;28;20108;-82
2021/07/21 02:04:15;;;;;;;5.82;3.38;;;16.50;74.90;;;;;;2072023;28;20448;-83
2021/07/21 02:05:17;;;;;;;5.93;3.28;;;16.50;74.90;;;;;;2059834;28;20026;-83
2021/07/21 02:06:18;;;;;;;5.15;3.22;;;16.60;74.90;;;;;;2065588;28;20022;-84
2021/07/21 02:07:22;;;;;;;5.40;3.42;;;16.50;74.90;;;;;;2068131;28;20177;-83
2021/07/21 02:08:23;;;;;;;5.88;3.40;;;16.50;75.00;;;;;;2064987;28;20082;-83
2021/07/21 02:09:24;;;;;;;6.18;3.50;;;16.50;75.00;;;;;;2072613;28;20133;-83
2021/07/21 02:10:27;;;;;;;5.18;3.50;;;16.50;75.00;;;;;;2080747;28;20030;-83
2021/07/21 02:11:29;;;;;;;6.00;3.75;;;16.50;75.00;;;;;;2080851;28;20033;-83
2021/07/21 02:12:32;;;;;;;6.45;3.67;;;16.50;75.00;;;;;;2064206;28;20034;-83
2021/07/21 02:13:34;;;;;;;6.50;3.55;;;16.50;75.00;;;;;;2064218;28;20034;-83
2021/07/21 02:14:35;;;;;;;6.53;3.80;;;16.50;75.00;;;;;;2057152;28;20027;-83
2021/07/21 02:15:36;;;;;;;5.05;3.05;;;16.50;75.00;;;;;;2069915;28;20075;-83
2021/07/21 02:16:38;;;;;;;5.93;3.65;;;16.50;75.00;;;;;;2089663;28;20380;-83
2021/07/21 02:17:40;;;;;;;5.93;3.65;;;16.50;75.00;;;;;;2089641;28;20339;-83
2021/07/21 02:18:41;;;;;;;5.63;3.40;;;16.50;75.00;;;;;;2088628;28;20020;-83
2021/07/21 02:19:44;;;;;;;5.95;3.17;;;16.50;74.90;;;;;;2081032;28;20049;-83
2021/07/21 02:20:46;;;;;;;6.30;3.50;;;16.50;74.90;;;;;;2080566;28;20033;-83
2021/07/21 02:21:48;;;;;;;6.05;3.60;;;16.50;74.90;;;;;;2080782;28;20025;-83
2021/07/21 02:22:49;;;;;;;4.72;3.20;;;16.50;74.90;;;;;;2056160;28;20128;-83
2021/07/21 02:23:51;;;;;;;5.47;3.53;;;16.50;74.90;;;;;;2064317;28;20477;-83
2021/07/21 02:24:53;;;;;;;5.53;3.47;;;16.50;74.90;;;;;;2072690;28;20022;-83
2021/07/21 02:25:58;;;;;;;5.18;3.22;;;16.50;74.90;;;;;;2072723;28;20034;-83
2021/07/21 02:26:59;;;;;;;6.07;3.42;;;16.40;74.90;;;;;;2074109;28;20639;-83
2021/07/21 02:28:00;;;;;;;6.30;3.60;;;16.40;74.90;;;;;;2064519;28;20034;-83
2021/07/21 02:29:00;;;;;;;5.40;3.42;;;16.40;74.90;;;;;;2059084;28;20493;-83
2021/07/21 02:30:04;;;;;;;5.28;3.20;;;16.40;74.90;;;;;;2074068;28;20102;-83
2021/07/21 02:31:09;;;;;;;6.47;3.90;;;16.40;74.80;;;;;;2082379;28;20041;-83
2021/07/21 02:32:14;;;;;;;6.05;3.80;;;16.40;74.90;;;;;;2074508;28;20033;-83
2021/07/21 02:33:42;;;;;;;6.30;3.60;;;16.40;74.80;;;;;;2073984;28;20025;-83
2021/07/21 02:34:44;;;;;;;5.70;3.53;;;16.40;74.80;;;;;;2077787;28;20046;-84
2021/07/21 02:35:45;;;;;;;6.40;3.83;;;16.40;74.70;;;;;;2076590;28;20029;-84
2021/07/21 02:36:46;;;;;;;5.20;3.20;;;16.40;74.70;;;;;;2065715;28;20023;-83
2021/07/21 02:37:48;;;;;;;5.57;3.60;;;16.40;74.70;;;;;;2058008;28;20058;-84
2021/07/21 02:38:49;;;;;;;5.65;3.55;;;16.40;74.70;;;;;;2056568;28;20144;-83
2021/07/21 02:39:52;;;;;;;6.75;3.85;;;16.40;74.70;;;;;;2057954;28;20125;-84
2021/07/21 02:40:54;;;;;;;5.07;3.25;;;16.40;74.80;;;;;;2066237;28;20038;-83
2021/07/21 02:41:54;;;;;;;5.53;3.22;;;16.40;74.70;;;;;;2065374;28;20121;-83
2021/07/21 02:42:55;;;;;;;5.28;3.40;;;16.40;74.70;;;;;;2065377;28;20034;-83
2021/07/21 02:43:56;;;;;;;5.47;3.60;;;16.40;74.80;;;;;;2065968;28;20027;-83
2021/07/21 02:44:56;;;;;;;6.47;3.75;;;16.40;75.40;;;;;;2057916;28;20031;-83
2021/07/21 02:45:57;;;;;;;6.45;3.97;;;16.40;74.80;;;;;;2066118;28;20062;-83
2021/07/21 02:46:58;;;;;;;6.07;3.63;;;16.40;74.80;;;;;;2074081;28;20029;-83
2021/07/21 02:47:59;;;;;;;6.25;3.90;;;16.40;74.90;;;;;;2065637;28;20030;-83
2021/07/21 02:49:00;;;;;;;6.40;3.80;;;16.40;75.00;;;;;;2065551;28;20034;-83
2021/07/21 02:50:02;;;;;;;6.15;4.13;;;16.40;75.00;;;;;;2073703;28;20088;-83
2021/07/21 02:51:10;;;;;;;5.88;3.70;;;16.40;75.10;;;;;;2072868;28;20435;-83
2021/07/21 02:52:15;;;;;;;5.78;3.78;;;16.40;75.20;;;;;;2074889;28;20444;-83
2021/07/21 02:53:25;;;;;;;6.32;3.33;;;16.40;75.20;;;;;;2074042;28;20026;-83
2021/07/21 02:54:46;;;;;;;5.55;3.60;;;16.40;75.30;;;;;;2074014;28;20065;-83
2021/07/21 02:55:56;;;;;;;8.30;3.85;;;16.40;75.30;;;;;;2068567;28;20034;-83
2021/07/21 02:57:06;;;;;;;5.75;3.45;;;16.40;75.40;;;;;;2075318;28;20060;-83
2021/07/21 02:58:20;;;;;;;6.45;3.75;;;16.40;75.40;;;;;;2088037;28;20399;-83
2021/07/21 02:59:23;;;;;;;6.07;3.70;;;16.40;75.40;;;;;;2090760;28;20028;-83
2021/07/21 03:00:26;;;;;;;6.15;3.95;;;16.30;75.30;;;;;;2082737;28;20098;-83
2021/07/21 03:01:31;;;;;;;5.95;3.80;;;16.40;75.50;;;;;;2074139;28;20068;-83
2021/07/21 03:02:35;;;;;;;6.57;3.63;;;16.30;75.50;;;;;;2080788;28;20022;-84
2021/07/21 03:03:36;;;;;;;6.00;3.78;;;16.30;75.60;;;;;;2082109;28;20025;-83
2021/07/21 03:04:38;;;;;;;7.22;3.70;;;16.30;75.70;;;;;;2082974;28;20590;-84
2021/07/21 03:05:40;;;;;;;6.63;3.88;;;16.30;75.80;;;;;;2080859;28;20072;-83
2021/07/21 03:06:41;;;;;;;6.32;3.75;;;16.30;75.80;;;;;;2082185;28;20040;-83
2021/07/21 03:07:46;;;;;;;6.30;3.85;;;16.30;75.90;;;;;;2073534;28;20032;-83
2021/07/21 03:08:48;;;;;;;6.10;3.95;;;16.30;76.00;;;;;;2073747;28;20084;-83
2021/07/21 03:09:52;;;;;;;5.85;3.80;;;16.30;76.00;;;;;;2067283;28;20033;-83
2021/07/21 03:10:56;;;;;;;5.03;3.22;;;16.30;76.10;;;;;;2074520;28;20038;-83
2021/07/21 03:11:59;;;;;;;7.00;4.18;;;16.30;76.20;;;;;;2073673;28;20026;-83
2021/07/21 03:13:05;;;;;;;5.63;3.60;;;16.30;76.20;;;;;;2074125;28;20014;-83
2021/07/21 03:14:07;;;;;;;6.88;3.70;;;16.30;76.20;;;;;;2074494;28;20026;-83
2021/07/21 03:15:11;;;;;;;7.15;3.67;;;16.30;76.80;;;;;;2073546;28;20116;-83
2021/07/21 03:16:14;;;;;;;5.85;3.72;;;16.30;76.30;;;;;;2073967;28;20030;-82
2021/07/21 03:17:15;;;;;;;6.68;3.80;;;16.30;76.30;;;;;;2067091;28;20018;-83
2021/07/21 03:18:21;;;;;;;6.63;3.90;;;16.30;76.40;;;;;;2073743;28;20544;-82
2021/07/21 03:19:23;;;;;;;6.30;3.80;;;16.30;76.40;;;;;;2076556;28;20247;-83
2021/07/21 03:20:25;;;;;;;7.15;4.00;;;16.30;76.40;;;;;;2085086;28;20101;-83
2021/07/21 03:21:27;;;;;;;6.07;3.70;;;16.30;76.50;;;;;;2086596;28;20026;-83
2021/07/21 03:22:28;;;;;;;6.38;3.95;;;16.30;76.60;;;;;;2084646;28;20034;-83
2021/07/21 03:23:29;;;;;;;5.80;3.78;;;16.30;76.60;;;;;;2084969;28;20165;-83
2021/07/21 03:24:30;;;;;;;6.85;4.18;;;16.30;76.70;;;;;;2075747;28;20030;-83
2021/07/21 03:25:32;;;;;;;7.47;4.03;;;16.30;76.80;;;;;;2066234;28;20068;-83
2021/07/21 03:26:34;;;;;;;7.38;4.35;;;16.30;76.80;;;;;;2066914;28;20038;-83
2021/07/21 03:27:37;;;;;;;6.78;4.13;;;16.30;76.80;;;;;;2066913;28;20113;-83
2021/07/21 03:28:39;;;;;;;7.28;4.40;;;16.30;76.90;;;;;;2076487;28;20025;-83
2021/07/21 03:29:40;;;;;;;5.85;3.80;;;16.30;76.90;;;;;;2065823;28;20030;-82
2021/07/21 03:30:42;;;;;;;7.10;4.32;;;16.30;77.00;;;;;;2074923;28;20060;-83
2021/07/21 03:31:43;;;;;;;6.60;4.20;;;16.30;77.10;;;;;;2074963;28;20088;-83
2021/07/21 03:32:46;;;;;;;6.00;3.95;;;16.30;77.10;;;;;;2077894;28;20033;-83
2021/07/21 03:33:58;;;;;;;6.50;4.10;;;16.30;77.20;;;;;;2075852;28;20045;-83
2021/07/21 03:35:00;;;;;;;6.28;4.30;;;16.30;77.20;;;;;;2083575;28;20029;-83
2021/07/21 03:36:03;;;;;;;6.90;4.43;;;16.30;77.20;;;;;;2081632;28;20064;-82
2021/07/21 03:37:04;;;;;;;7.47;4.57;;;16.30;77.30;;;;;;2073879;28;20026;-83
2021/07/21 03:38:07;;;;;;;6.40;4.28;;;16.30;77.40;;;;;;2065590;28;20054;-83
2021/07/21 03:39:12;;;;;;;7.10;4.40;;;16.30;77.50;;;;;;2074321;28;20105;-83
2021/07/21 03:40:13;;;;;;;6.88;4.22;;;16.30;77.50;;;;;;2069809;28;20026;-83
2021/07/21 03:41:14;;;;;;;6.78;4.47;;;16.30;77.60;;;;;;2057457;28;20026;-83
2021/07/21 03:42:16;;;;;;;8.15;4.38;;;16.20;77.60;;;;;;2064958;28;20485;-83
2021/07/21 03:43:18;;;;;;;7.13;4.28;;;16.30;77.70;;;;;;2073429;28;20064;-83
2021/07/21 03:44:23;;;;;;;7.72;4.45;;;16.20;77.70;;;;;;2065173;28;20031;-83
2021/07/21 03:45:25;;;;;;;6.57;4.10;;;16.20;77.80;;;;;;2066510;28;20043;-83
2021/07/21 03:46:26;;;;;;;8.65;4.82;;;16.30;77.80;;;;;;2088922;28;20145;-83
2021/07/21 03:47:27;;;;;;;6.38;4.03;;;16.30;77.90;;;;;;2073524;28;20029;-82
2021/07/21 03:48:29;;;;;;;7.75;4.43;;;16.20;77.90;;;;;;2064746;28;20064;-83
2021/07/21 03:49:30;;;;;;;6.95;4.40;;;16.20;78.00;;;;;;2065895;28;20030;-83
2021/07/21 03:50:31;;;;;;;7.40;4.38;;;16.30;78.00;;;;;;2065345;28;20535;-82
2021/07/21 03:51:37;;;;;;;6.75;4.15;;;16.20;78.00;;;;;;2064208;28;20072;-82
2021/07/21 03:52:43;;;;;;;7.10;4.47;;;16.30;78.10;;;;;;2066276;28;20054;-82
2021/07/21 03:53:44;;;;;;;6.15;4.22;;;16.20;78.10;;;;;;2066707;28;20113;-83
2021/07/21 03:54:47;;;;;;;7.35;4.10;;;16.20;78.20;;;;;;2057403;28;20073;-83
2021/07/21 03:55:48;;;;;;;7.20;4.50;;;16.20;78.80;;;;;;2062328;28;20080;-83
2021/07/21 03:56:50;;;;;;;8.20;4.45;;;16.20;78.20;;;;;;2073428;28;20030;-83
2021/07/21 03:57:51;;;;;;;7.07;4.53;;;16.20;78.20;;;;;;2073600;28;20076;-82
2021/07/21 03:58:52;;;;;;;7.97;4.47;;;16.20;78.30;;;;;;2081672;28;20025;-83
2021/07/21 03:59:53;;;;;;;7.32;4.57;;;16.20;78.30;;;;;;2085442;28;20059;-82
2021/07/21 04:00:56;;;;;;;8.02;4.50;;;16.20;78.30;;;;;;2076596;28;20565;-83
2021/07/21 04:01:59;;;;;;;6.50;4.60;;;16.20;78.40;;;;;;2073006;28;20030;-82
2021/07/21 04:03:01;;;;;;;6.85;4.80;;;16.20;78.40;;;;;;2064564;28;20053;-83
2021/07/21 04:04:03;;;;;;;7.25;4.35;;;16.20;78.50;;;;;;2065287;28;20018;-83
2021/07/21 04:05:05;;;;;;;7.63;4.82;;;16.20;79.10;;;;;;2075780;28;20060;-83
2021/07/21 04:06:07;;;;;;;6.93;4.63;;;16.20;78.60;;;;;;2081952;28;20037;-83
2021/07/21 04:07:08;;;;;;;6.70;4.28;;;16.20;78.60;;;;;;2074104;28;20532;-83
2021/07/21 04:08:09;;;;;;;7.38;4.50;;;16.20;78.60;;;;;;2082071;28;20071;-84
2021/07/21 04:09:18;;;;;;;6.90;4.38;;;16.20;78.60;;;;;;2081406;28;20034;-83
2021/07/21 04:10:20;;;;;;;7.18;4.53;;;16.30;78.70;;;;;;2067639;28;20074;-84
2021/07/21 04:11:24;;;;;;;7.05;4.35;;;16.20;78.60;;;;;;2073430;28;20082;-84
2021/07/21 04:12:25;;;;;;;6.18;4.35;;;16.20;78.70;;;;;;2080985;28;20188;-84
2021/07/21 04:13:26;;;;;;;7.43;4.75;;;16.20;78.70;;;;;;2076546;28;20068;-84
2021/07/21 04:14:28;;;;;;;7.15;4.63;;;16.20;79.40;;;;;;2075112;28;20476;-84
2021/07/21 04:15:30;;;;;;;6.50;4.50;;;16.20;78.80;;;;;;2073773;28;20482;-85
2021/07/21 04:16:34;;;;;;;6.57;4.47;;;16.20;78.90;;;;;;2065441;28;20026;-84
2021/07/21 04:17:36;;;;;;;7.47;4.38;;;16.20;78.90;;;;;;2065772;28;20034;-85
2021/07/21 04:18:38;;;;;;;7.57;4.65;;;16.30;79.00;;;;;;2073903;28;20550;-85
2021/07/21 04:19:41;;;;;;;7.40;4.63;;;16.20;79.00;;;;;;2081380;28;20044;-84
2021/07/21 04:20:42;;;;;;;7.72;5.13;;;16.30;79.00;;;;;;2086396;28;20025;-84
2021/07/21 04:21:47;;;;;;;7.07;4.60;;;16.20;79.00;;;;;;2089613;28;20040;-84
2021/07/21 04:22:49;;;;;;;6.97;4.55;;;16.30;79.10;;;;;;2089485;28;20028;-84
2021/07/21 04:23:51;;;;;;;8.15;4.38;;;16.30;79.00;;;;;;2079071;28;20076;-83
2021/07/21 04:24:52;;;;;;;7.00;4.45;;;16.30;79.00;;;;;;2073197;28;20018;-84
2021/07/21 04:25:54;;;;;;;6.57;4.50;;;16.30;79.00;;;;;;2081509;28;20034;-84
2021/07/21 04:26:55;;;;;;;7.03;4.60;;;16.30;79.00;;;;;;2073560;28;20116;-84
2021/07/21 04:27:57;;;;;;;7.55;4.38;;;16.30;79.10;;;;;;2074072;28;20029;-84
2021/07/21 04:28:58;;;;;;;7.82;4.85;;;16.40;79.10;;;;;;2065667;28;20038;-84
2021/07/21 04:29:59;;;;;;;6.65;4.50;;;16.30;79.10;;;;;;2065630;28;20027;-84
2021/07/21 04:31:01;;;;;;;8.98;4.90;;;16.30;79.10;;;;;;2065479;28;20527;-83
2021/07/21 04:32:03;;;;;;;7.15;4.47;;;16.40;79.20;;;;;;2069917;28;20022;-83
2021/07/21 04:33:05;;;;;;;8.30;4.85;;;16.30;79.20;;;;;;2080854;28;20029;-83
2021/07/21 04:34:06;;;;;;;7.88;5.05;;;16.30;79.20;;;;;;2081413;28;20479;-83
2021/07/21 04:35:10;;;;;;;8.15;4.68;;;16.40;79.30;;;;;;2065392;28;20150;-84
2021/07/21 04:36:13;;;;;;;7.75;4.85;;;16.30;79.20;;;;;;2066089;28;20038;-83
2021/07/21 04:37:14;;;;;;;6.93;4.43;;;16.40;79.30;;;;;;2073713;28;20061;-83
2021/07/21 04:38:16;;;;;;;6.68;4.40;;;16.40;79.30;;;;;;2078831;28;20025;-83
2021/07/21 04:39:19;;;;;;;7.15;4.20;;;16.40;79.30;;;;;;2081259;28;20033;-83
2021/07/21 04:40:21;;;;;;;6.80;4.65;;;16.40;79.30;;;;;;2066112;28;20022;-83
2021/07/21 04:41:23;;;;;;;7.65;4.90;;;16.40;79.20;;;;;;2081534;28;20026;-84
2021/07/21 04:42:28;;;;;;;7.07;4.57;;;16.40;79.30;;;;;;2081015;28;20121;-83
2021/07/21 04:43:29;;;;;;;6.53;4.50;;;16.40;79.30;;;;;;2081996;28;20531;-83
2021/07/21 04:44:31;;;;;;;7.65;4.70;;;16.50;79.30;;;;;;2073164;28;20041;-82
2021/07/21 04:45:32;;;;;;;6.97;4.88;;;16.50;79.30;;;;;;2057426;28;20580;-83
2021/07/21 04:46:34;;;;;;;7.28;4.65;;;16.50;79.30;;;;;;2069135;28;20033;-83
2021/07/21 04:47:36;;;;;;;7.43;4.85;;;16.50;79.30;;;;;;2065827;28;20038;-82
2021/07/21 04:48:40;;;;;;;8.38;4.68;;;16.50;79.30;;;;;;2082176;28;20029;-82
2021/07/21 04:49:42;;;;;;;6.85;4.80;;;16.50;79.30;;;;;;2072973;28;20037;-83
2021/07/21 04:50:44;;;;;;;7.38;4.72;;;16.50;79.30;;;;;;2068011;28;20477;-82
2021/07/21 04:51:48;;;;;;;6.88;4.55;;;16.50;79.30;;;;;;2072459;28;20029;-83
2021/07/21 04:52:49;;;;;;;6.95;4.60;;;16.60;79.30;;;;;;2073213;28;20033;-82
2021/07/21 04:53:54;;;;;;;9.55;4.97;;;16.60;79.30;;;;;;2073128;28;20034;-82
2021/07/21 04:54:55;;;;;;;6.65;4.40;;;16.70;79.30;;;;;;2073720;28;20042;-83
2021/07/21 04:55:56;;;;;;;9.13;4.90;;;16.60;79.20;;;;;;2073210;28;20049;-83
2021/07/21 04:56:57;;;;;;;7.70;5.07;;;16.70;79.30;;;;;;2064906;28;20030;-83
2021/07/21 04:57:58;;;;;;;7.72;4.90;;;16.70;79.20;;;;;;2073147;28;20072;-83
2021/07/21 04:58:59;;;;;;;8.10;4.90;;;16.70;79.20;;;;;;2076709;28;20025;-82
2021/07/21 04:59:59;;;;;;;8.05;4.60;;;16.70;79.20;;;;;;2080659;28;20104;-82
2021/07/21 05:01:00;;;;;;;6.93;4.70;;;16.80;79.20;;;;;;2078027;28;20034;-82
2021/07/21 05:02:01;;;;;;;7.22;4.45;;;16.80;79.20;;;;;;2071829;28;20034;-82
2021/07/21 05:03:05;;;;;;;7.68;4.85;;;16.80;79.10;;;;;;2073118;28;20026;-82
2021/07/21 05:04:07;;;;;;;6.90;4.65;;;16.80;79.00;;;;;;2068774;28;20026;-82
2021/07/21 05:05:08;;;;;;;6.72;4.40;;;16.80;79.00;;;;;;2073816;28;20109;-83
2021/07/21 05:06:09;;;;;;;7.22;4.72;;;16.80;79.00;;;;;;2077858;28;20033;-82
2021/07/21 05:07:11;;;;;;;7.93;5.55;;;16.90;79.00;;;;;;2081134;28;20029;-83
2021/07/21 05:08:11;;;;;;;7.57;4.38;;;16.90;79.00;;;;;;2068355;28;20026;-82
2021/07/21 05:09:12;;;;;;;6.72;4.68;;;16.90;78.90;;;;;;2068444;28;20088;-82
2021/07/21 05:10:13;;;;;;;7.25;4.53;;;16.90;78.90;;;;;;2072218;28;20030;-82
2021/07/21 05:11:14;;;;;;;6.90;4.40;;;16.90;78.90;;;;;;2089020;28;20028;-82
2021/07/21 05:12:14;;;;;;;8.50;5.05;;;16.90;78.90;;;;;;2075976;28;20610;-82
2021/07/21 05:13:17;;;;;;;7.85;5.20;;;16.90;78.80;;;;;;2048627;29;20035;-82
2021/07/21 05:14:18;;;;;;;8.48;5.00;;;16.90;78.80;;;;;;2059591;28;20054;-83
2021/07/21 05:15:19;;;;;;;6.35;4.45;;;17.00;78.90;;;;;;2056803;28;20500;-83
2021/07/21 05:16:19;;;;;;;8.55;5.13;;;17.00;78.90;;;;;;2064867;28;20520;-83
2021/07/21 05:17:20;;;;;;;7.40;5.10;;;17.00;78.80;;;;;;2069141;28;20034;-82
2021/07/21 05:18:20;;;;;;;8.13;5.35;;;17.00;78.80;;;;;;2064740;28;20134;-82
2021/07/21 05:19:21;;;;;;;7.05;4.88;;;17.00;78.80;;;;;;2066585;28;20033;-83
2021/07/21 05:20:22;;;;;;;8.45;5.05;;;17.10;78.80;;;;;;2059465;28;20105;-82
2021/07/21 05:21:23;;;;;;;8.40;5.28;;;17.10;78.70;;;;;;2056697;28;20515;-83
2021/07/21 05:22:23;;;;;;;7.43;4.97;;;17.10;78.70;;;;;;2054297;28;20481;-82
2021/07/21 05:23:24;;;;;;;7.82;5.22;;;17.10;78.70;;;;;;2064741;28;20072;-82
2021/07/21 05:24:25;;;;;;;7.78;4.82;;;17.20;78.60;;;;;;2072858;28;20540;-82
2021/07/21 05:25:26;;;;;;;8.88;5.30;;;17.20;78.60;;;;;;2067749;28;20041;-82
2021/07/21 05:26:26;;;;;;;8.65;5.13;;;17.20;78.60;;;;;;2064564;28;20030;-82
2021/07/21 05:27:36;;;;;;;9.00;5.63;;;17.20;78.60;;;;;;2064883;28;20041;-83
2021/07/21 05:28:39;;;;;;;8.20;5.25;;;17.20;78.50;;;;;;2074091;28;20029;-82
2021/07/21 05:31:40;;;;;;;7.88;4.82;;;17.30;78.50;;;;;;2096530;28;20082;-82
2021/07/21 05:32:40;;;;;;;8.10;5.05;;;17.30;78.20;;;;;;2072992;28;20081;-82
2021/07/21 05:33:41;;;;;;;8.25;5.25;;;17.30;78.20;;;;;;2064802;28;20054;-82
2021/07/21 05:34:42;;;;;;;8.23;5.38;;;17.30;78.20;;;;;;2080974;28;20499;-82